createdAt,value
2019-05-13T00:01:36.864Z,81.48
2019-05-13T00:04:09.328Z,81.17
2019-05-13T00:06:53.199Z,81.19
2019-05-13T00:09:16.790Z,81.78
2019-05-13T00:11:49.554Z,83.12
2019-05-13T00:14:23.918Z,82.65
2019-05-13T00:16:56.964Z,82.41
2019-05-13T00:19:29.371Z,83.29
2019-05-13T00:22:03.793Z,82.30
2019-05-13T00:24:36.144Z,82.98
2019-05-13T00:27:08.449Z,83.57
2019-05-13T00:29:40.238Z,84.58
2019-05-13T00:32:13.434Z,84.04
2019-05-13T00:34:45.673Z,82.58
2019-05-13T00:37:18.212Z,83.16
2019-05-13T00:39:50.300Z,82.76
2019-05-13T00:42:24.557Z,82.99
2019-05-13T00:44:57.677Z,83.87
2019-05-13T00:47:30.170Z,83.43
2019-05-13T00:50:03.700Z,83.70
2019-05-13T00:52:36.601Z,83.40
2019-05-13T00:55:10.065Z,83.85
2019-05-13T00:57:43.662Z,84.43
2019-05-13T01:00:28.294Z,84.08
2019-05-13T01:03:03.764Z,83.83
2019-05-13T01:05:36.234Z,82.95
2019-05-13T01:08:08.303Z,82.88
2019-05-13T01:10:40.989Z,84.64
2019-05-13T01:13:13.657Z,83.60
2019-05-13T01:15:46.815Z,84.13
2019-05-13T01:18:18.935Z,85.48
2019-05-13T01:20:50.984Z,85.70
2019-05-13T01:23:24.020Z,85.23
2019-05-13T01:25:57.262Z,86.44
2019-05-13T01:28:29.645Z,84.03
2019-05-13T01:31:04.190Z,84.50
2019-05-13T01:33:37.415Z,85.13
2019-05-13T01:36:09.550Z,85.12
2019-05-13T01:38:43.574Z,86.50
2019-05-13T01:41:16.679Z,86.03
2019-05-13T01:43:48.731Z,85.97
2019-05-13T01:46:24.091Z,87.11
2019-05-13T01:48:56.376Z,87.30
2019-05-13T01:51:28.497Z,87.59
2019-05-13T01:54:03.965Z,87.38
2019-05-13T01:56:35.957Z,88.02
2019-05-13T01:59:08.510Z,87.57
2019-05-13T02:01:44.056Z,88.19
2019-05-13T02:04:16.180Z,88.71
2019-05-13T02:06:48.503Z,88.24
2019-05-13T02:09:24.324Z,88.12
2019-05-13T02:11:56.219Z,89.42
2019-05-13T02:14:28.941Z,91.17
2019-05-13T02:17:04.291Z,90.35
2019-05-13T02:19:40.772Z,91.71
2019-05-13T02:22:14.721Z,91.73
2019-05-13T02:24:47.532Z,91.74
2019-05-13T02:27:20.250Z,92.60
2019-05-13T02:29:54.000Z,93.84
2019-05-13T02:32:26.435Z,92.06
2019-05-13T02:35:02.230Z,93.34
2019-05-13T02:37:34.969Z,93.28
2019-05-13T02:40:07.358Z,94.20
2019-05-13T02:42:43.510Z,94.62
2019-05-13T02:45:15.007Z,94.33
2019-05-13T02:47:48.048Z,95.39
2019-05-13T02:50:22.614Z,93.14
2019-05-13T02:52:54.840Z,94.72
2019-05-13T02:55:27.850Z,96.57
2019-05-13T02:58:03.355Z,95.89
2019-05-13T03:00:35.328Z,93.54
2019-05-13T03:03:08.384Z,95.76
2019-05-13T03:05:42.869Z,97.34
2019-05-13T03:08:34.200Z,96.65
2019-05-13T03:10:52.993Z,97.70
2019-05-13T03:13:25.318Z,98.96
2019-05-13T03:16:15.641Z,99.81
2019-05-13T03:18:48.074Z,99.48
2019-05-13T03:21:23.157Z,100.00
2019-05-13T03:23:55.454Z,100.00
2019-05-13T03:26:28.497Z,100.00
2019-05-13T03:29:02.813Z,100.00
2019-05-13T03:31:36.355Z,100.00
2019-05-13T03:34:14.620Z,100.00
2019-05-13T03:36:45.860Z,100.00
2019-05-13T03:39:17.078Z,100.00
2019-05-13T03:41:53.821Z,100.00
2019-05-13T03:44:32.536Z,97.59
2019-05-13T03:47:05.838Z,98.57
2019-05-13T03:49:42.198Z,100.00
2019-05-13T03:52:13.765Z,100.00
2019-05-13T03:54:46.977Z,100.00
2019-05-13T03:57:18.018Z,100.00
2019-05-13T03:59:52.584Z,100.00
2019-05-13T04:02:26.043Z,100.00
2019-05-13T04:05:00.477Z,100.00
2019-05-13T04:07:32.740Z,100.00
2019-05-13T04:10:04.902Z,100.00
2019-05-13T04:12:37.276Z,100.00
2019-05-13T04:15:12.597Z,100.00
2019-05-13T04:17:45.221Z,100.00
2019-05-13T04:20:17.625Z,100.00
2019-05-13T04:22:52.962Z,100.00
2019-05-13T04:25:24.843Z,100.00
2019-05-13T04:27:57.131Z,100.00
2019-05-13T04:30:32.721Z,100.00
2019-05-13T04:33:04.695Z,100.00
2019-05-13T04:35:37.578Z,100.00
2019-05-13T04:38:13.384Z,100.00
2019-05-13T04:40:47.145Z,100.00
2019-05-13T04:43:23.242Z,100.00
2019-05-13T04:45:54.155Z,97.06
2019-05-13T04:48:26.625Z,98.80
2019-05-13T04:51:03.000Z,96.97
2019-05-13T04:53:34.401Z,98.50
2019-05-13T04:56:08.940Z,96.74
2019-05-13T04:58:42.795Z,98.64
2019-05-13T05:01:40.435Z,97.97
2019-05-13T05:04:23.963Z,96.16
2019-05-13T05:07:32.519Z,95.48
2019-05-13T05:11:03.280Z,94.87
2019-05-13T05:14:22.428Z,92.46
2019-05-13T05:17:43.030Z,93.14
2019-05-13T05:20:46.572Z,90.87
2019-05-13T05:24:33.162Z,90.45
2019-05-13T05:28:12.700Z,90.34
2019-05-13T05:31:33.072Z,90.05
2019-05-13T05:35:11.855Z,90.47
2019-05-13T05:38:43.397Z,88.77
2019-05-13T05:41:23.340Z,87.74
2019-05-13T05:43:58.888Z,88.90
2019-05-13T05:46:33.247Z,88.28
2019-05-13T05:49:12.742Z,87.96
2019-05-13T05:51:51.268Z,85.40
2019-05-13T05:54:28.657Z,83.64
2019-05-13T05:57:05.263Z,84.31
2019-05-13T05:59:42.684Z,83.44
2019-05-13T06:02:15.565Z,82.12
2019-05-13T06:04:52.021Z,81.85
2019-05-13T06:07:26.448Z,81.28
2019-05-13T06:09:59.187Z,80.58
2019-05-13T06:12:32.575Z,79.97
2019-05-13T06:15:36.273Z,79.52
2019-05-13T06:18:07.415Z,79.77
2019-05-13T06:20:41.666Z,78.59
2019-05-13T06:23:14.495Z,77.83
2019-05-13T06:25:46.642Z,77.43
2019-05-13T06:28:18.689Z,77.63
2019-05-13T06:30:52.204Z,77.31
2019-05-13T06:33:25.039Z,76.39
2019-05-13T06:35:57.365Z,75.75
2019-05-13T06:38:31.644Z,75.35
2019-05-13T06:41:10.855Z,74.41
2019-05-13T06:43:39.163Z,74.30
2019-05-13T06:46:12.419Z,73.69
2019-05-13T06:48:45.252Z,72.40
2019-05-13T06:51:17.789Z,72.53
2019-05-13T06:53:51.785Z,71.18
2019-05-13T06:56:25.634Z,70.71
2019-05-13T06:59:01.272Z,70.28
2019-05-13T07:01:32.931Z,68.91
2019-05-13T07:04:05.541Z,69.34
2019-05-13T07:06:37.950Z,67.60
2019-05-13T07:09:12.014Z,66.57
2019-05-13T07:11:44.492Z,66.76
2019-05-13T07:14:16.935Z,65.75
2019-05-13T07:16:49.267Z,64.81
2019-05-13T07:19:23.863Z,64.35
2019-05-13T07:21:56.986Z,63.98
2019-05-13T07:24:31.996Z,63.87
2019-05-13T07:27:04.769Z,63.29
2019-05-13T07:29:35.664Z,63.31
2019-05-13T07:32:07.791Z,62.90
2019-05-13T07:34:43.770Z,62.35
2019-05-13T07:37:16.295Z,61.29
2019-05-13T07:39:49.005Z,60.91
2019-05-13T07:42:22.289Z,60.34
2019-05-13T07:44:55.062Z,59.74
2019-05-13T07:47:27.448Z,59.59
2019-05-13T07:50:02.480Z,59.31
2019-05-13T07:52:34.608Z,58.70
2019-05-13T07:55:07.216Z,57.69
2019-05-13T07:57:42.082Z,57.26
2019-05-13T08:00:13.684Z,57.71
2019-05-13T08:02:46.361Z,57.39
2019-05-13T08:05:22.227Z,56.32
2019-05-13T08:07:53.772Z,56.16
2019-05-13T08:10:26.233Z,56.13
2019-05-13T08:12:59.492Z,55.83
2019-05-13T08:15:33.623Z,55.96
2019-05-13T08:18:06.267Z,54.88
2019-05-13T08:20:38.339Z,55.43
2019-05-13T08:23:13.608Z,54.01
2019-05-13T08:25:46.374Z,54.25
2019-05-13T08:28:19.197Z,54.82
2019-05-13T08:30:52.083Z,52.33
2019-05-13T08:33:23.114Z,52.41
2019-05-13T08:35:58.640Z,52.64
2019-05-13T08:38:31.879Z,50.76
2019-05-13T08:41:03.926Z,50.38
2019-05-13T08:43:36.929Z,50.43
2019-05-13T08:46:12.345Z,50.20
2019-05-13T08:48:45.824Z,50.87
2019-05-13T08:51:19.012Z,49.27
2019-05-13T08:53:51.840Z,48.99
2019-05-13T08:56:24.814Z,48.98
2019-05-13T08:58:57.651Z,48.83
2019-05-13T09:01:28.717Z,48.23
2019-05-13T09:04:02.443Z,48.02
2019-05-13T09:06:34.503Z,47.77
2019-05-13T09:09:11.506Z,47.06
2019-05-13T09:11:43.558Z,47.06
2019-05-13T09:14:16.078Z,45.56
2019-05-13T09:16:48.718Z,45.92
2019-05-13T09:19:21.550Z,46.91
2019-05-13T09:21:53.403Z,46.50
2019-05-13T09:24:34.119Z,45.55
2019-05-13T09:27:01.983Z,45.69
2019-05-13T09:29:34.709Z,45.22
2019-05-13T09:32:07.772Z,45.66
2019-05-13T09:34:42.191Z,43.49
2019-05-13T09:37:14.637Z,45.52
2019-05-13T09:39:46.938Z,45.95
2019-05-13T09:42:21.490Z,44.88
2019-05-13T09:44:53.705Z,44.33
2019-05-13T09:47:28.459Z,45.10
2019-05-13T09:50:00.491Z,44.10
2019-05-13T09:52:32.036Z,44.37
2019-05-13T09:55:03.753Z,44.00
2019-05-13T09:57:36.028Z,44.90
2019-05-13T10:00:11.987Z,44.67
2019-05-13T10:02:43.608Z,43.40
2019-05-13T10:05:15.495Z,43.08
2019-05-13T10:07:47.919Z,43.20
2019-05-13T10:10:22.371Z,42.79
2019-05-13T10:13:07.813Z,43.49
2019-05-13T10:15:28.888Z,42.40
2019-05-13T10:18:01.907Z,40.93
2019-05-13T10:20:53.843Z,42.05
2019-05-13T10:23:27.754Z,41.49
2019-05-13T10:26:03.750Z,41.90
2019-05-13T10:28:36.578Z,41.31
2019-05-13T10:31:11.773Z,40.56
2019-05-13T10:33:43.785Z,41.14
2019-05-13T10:36:15.141Z,41.74
2019-05-13T10:38:47.424Z,41.05
2019-05-13T10:41:21.617Z,40.73
2019-05-13T10:43:53.835Z,40.90
2019-05-13T10:46:25.947Z,39.80
2019-05-13T10:48:58.616Z,40.52
2019-05-13T10:51:32.700Z,41.20
2019-05-13T10:54:05.284Z,40.69
2019-05-13T10:56:38.166Z,40.60
2019-05-13T10:59:12.637Z,40.49
2019-05-13T11:01:44.639Z,39.79
2019-05-13T11:04:17.362Z,40.33
2019-05-13T11:06:52.446Z,40.03
2019-05-13T11:09:24.669Z,39.84
2019-05-13T11:11:57.674Z,38.31
2019-05-13T11:14:32.393Z,38.50
2019-05-13T11:17:05.879Z,38.46
2019-05-13T11:19:38.796Z,38.69
2019-05-13T11:22:12.469Z,38.42
2019-05-13T11:24:45.161Z,39.12
2019-05-13T11:27:17.600Z,38.45
2019-05-13T11:29:52.282Z,38.23
2019-05-13T11:32:23.965Z,38.82
2019-05-13T11:34:57.017Z,36.36
2019-05-13T11:37:29.155Z,38.18
2019-05-13T11:40:00.013Z,38.39
2019-05-13T11:42:34.314Z,38.97
2019-05-13T11:45:06.845Z,38.42
2019-05-13T11:47:40.927Z,38.57
2019-05-13T11:50:13.293Z,38.89
2019-05-13T11:52:45.463Z,38.89
2019-05-13T11:55:18.681Z,38.16
2019-05-13T11:57:53.067Z,38.20
2019-05-13T12:00:55.363Z,38.35
2019-05-13T12:03:27.908Z,37.58
2019-05-13T12:06:02.259Z,37.71
2019-05-13T12:08:35.436Z,37.54
2019-05-13T12:11:08.771Z,38.40
2019-05-13T12:13:42.633Z,38.88
2019-05-13T12:16:15.291Z,38.86
2019-05-13T12:18:48.383Z,38.63
2019-05-13T12:21:21.480Z,38.51
2019-05-13T12:23:53.579Z,38.13
2019-05-13T12:26:25.982Z,37.09
2019-05-13T12:28:56.777Z,37.73
2019-05-13T12:31:33.392Z,37.22
2019-05-13T12:34:03.785Z,37.03
2019-05-13T12:36:36.925Z,37.13
2019-05-13T12:39:13.806Z,38.06
2019-05-13T12:41:43.719Z,38.36
2019-05-13T12:44:15.833Z,35.80
2019-05-13T12:46:50.346Z,36.28
2019-05-13T12:49:22.069Z,36.96
2019-05-13T12:52:00.628Z,36.31
2019-05-13T12:54:28.525Z,36.40
2019-05-13T12:57:03.566Z,35.92
2019-05-13T12:59:33.450Z,36.69
2019-05-13T13:02:05.513Z,36.51
2019-05-13T13:04:37.571Z,36.76
2019-05-13T13:07:13.165Z,35.57
2019-05-13T13:09:44.224Z,35.50
2019-05-13T13:12:16.942Z,36.21
2019-05-13T13:14:54.112Z,35.76
2019-05-13T13:17:24.399Z,35.52
2019-05-13T13:20:06.106Z,36.72
2019-05-13T13:22:32.660Z,36.22
2019-05-13T13:25:05.228Z,36.61
2019-05-13T13:28:03.146Z,35.87
2019-05-13T13:30:12.069Z,36.15
2019-05-13T13:32:45.623Z,36.81
2019-05-13T13:35:21.809Z,35.43
2019-05-13T13:37:55.628Z,34.59
2019-05-13T13:40:30.593Z,35.42
2019-05-13T13:43:05.384Z,35.68
2019-05-13T13:46:05.211Z,35.75
2019-05-13T13:48:13.356Z,36.34
2019-05-13T13:50:45.235Z,35.20
2019-05-13T13:53:18.281Z,36.29
2019-05-13T13:55:55.504Z,35.03
2019-05-13T13:58:25.782Z,35.41
2019-05-13T14:01:07.217Z,35.66
2019-05-13T14:03:34.322Z,35.07
2019-05-13T14:06:07.344Z,36.01
2019-05-13T14:08:41.374Z,35.39
2019-05-13T14:11:13.162Z,35.18
2019-05-13T14:13:48.571Z,35.40
2019-05-13T14:16:29.626Z,34.35
2019-05-13T14:18:55.444Z,35.36
2019-05-13T14:21:28.056Z,34.85
2019-05-13T14:23:59.420Z,34.97
2019-05-13T14:26:33.098Z,34.48
2019-05-13T14:29:05.377Z,35.25
2019-05-13T14:31:37.739Z,34.93
2019-05-13T14:34:11.476Z,35.07
2019-05-13T14:36:42.980Z,35.09
2019-05-13T14:39:14.113Z,36.25
2019-05-13T14:41:46.868Z,35.25
2019-05-13T14:44:21.868Z,35.30
2019-05-13T14:46:54.220Z,34.67
2019-05-13T14:49:28.139Z,34.97
2019-05-13T14:52:02.392Z,35.23
2019-05-13T14:54:34.767Z,35.36
2019-05-13T14:57:05.618Z,34.39
2019-05-13T14:59:38.210Z,35.49
2019-05-13T15:02:11.945Z,34.13
2019-05-13T15:04:45.229Z,36.10
2019-05-13T15:07:17.471Z,35.47
2019-05-13T15:09:51.489Z,33.90
2019-05-13T15:12:23.525Z,34.67
2019-05-13T15:14:57.006Z,35.16
2019-05-13T15:17:32.386Z,36.40
2019-05-13T15:20:05.604Z,35.84
2019-05-13T15:22:38.221Z,35.74
2019-05-13T15:25:11.419Z,36.81
2019-05-13T15:27:44.414Z,36.24
2019-05-13T15:30:37.291Z,35.10
2019-05-13T15:33:08.696Z,34.79
2019-05-13T15:35:41.950Z,33.69
2019-05-13T15:38:14.351Z,34.78
2019-05-13T15:40:46.742Z,33.85
2019-05-13T15:43:19.261Z,34.17
2019-05-13T15:45:51.508Z,34.32
2019-05-13T15:48:23.361Z,33.17
2019-05-13T15:50:56.089Z,33.59
2019-05-13T15:53:28.877Z,33.65
2019-05-13T15:56:02.920Z,32.84
2019-05-13T15:58:40.018Z,33.56
2019-05-13T16:01:09.207Z,34.08
2019-05-13T16:03:42.299Z,34.86
2019-05-13T16:06:14.867Z,34.08
2019-05-13T16:08:47.350Z,34.74
2019-05-13T16:11:21.751Z,33.89
2019-05-13T16:13:52.983Z,34.38
2019-05-13T16:16:25.513Z,34.13
2019-05-13T16:18:57.837Z,34.11
2019-05-13T16:21:31.981Z,34.06
2019-05-13T16:24:05.195Z,34.69
2019-05-13T16:26:37.585Z,34.64
2019-05-13T16:29:08.383Z,34.50
2019-05-13T16:31:41.556Z,34.69
2019-05-13T16:34:14.363Z,34.66
2019-05-13T16:36:46.554Z,34.13
2019-05-13T16:39:17.319Z,34.85
2019-05-13T16:41:51.657Z,34.89
2019-05-13T16:44:24.196Z,34.97
2019-05-13T16:46:57.573Z,35.19
2019-05-13T16:49:31.825Z,35.55
2019-05-13T16:52:04.110Z,35.88
2019-05-13T16:54:36.279Z,36.03
2019-05-13T16:57:08.767Z,36.41
2019-05-13T16:59:42.363Z,36.71
2019-05-13T17:02:15.040Z,36.45
2019-05-13T17:04:48.492Z,36.77
2019-05-13T17:07:21.256Z,37.50
2019-05-13T17:09:53.758Z,37.73
2019-05-13T17:12:26.453Z,38.15
2019-05-13T17:15:01.285Z,37.86
2019-05-13T17:17:33.486Z,38.37
2019-05-13T17:20:05.974Z,38.68
2019-05-13T17:22:37.803Z,38.75
2019-05-13T17:25:12.722Z,39.00
2019-05-13T17:27:46.415Z,39.42
2019-05-13T17:30:21.838Z,39.50
2019-05-13T17:32:54.449Z,39.10
2019-05-13T17:35:26.779Z,39.40
2019-05-13T17:37:59.136Z,39.51
2019-05-13T17:40:31.983Z,39.99
2019-05-13T17:43:04.100Z,39.88
2019-05-13T17:45:36.723Z,40.51
2019-05-13T17:48:25.482Z,40.53
2019-05-13T17:50:43.565Z,41.07
2019-05-13T17:53:15.730Z,41.07
2019-05-13T17:55:48.470Z,41.51
2019-05-13T17:58:21.972Z,42.17
2019-05-13T18:00:53.581Z,41.96
2019-05-13T18:03:26.430Z,42.27
2019-05-13T18:05:57.284Z,42.72
2019-05-13T18:08:32.062Z,42.62
2019-05-13T18:11:04.680Z,42.80
2019-05-13T18:13:37.014Z,43.47
2019-05-13T18:16:09.079Z,43.15
2019-05-13T18:18:46.936Z,44.28
2019-05-13T18:21:15.764Z,44.27
2019-05-13T18:23:49.194Z,44.75
2019-05-13T18:26:21.694Z,44.83
2019-05-13T18:28:54.300Z,44.52
2019-05-13T18:31:26.483Z,45.11
2019-05-13T18:34:01.425Z,45.36
2019-05-13T18:36:34.451Z,45.41
2019-05-13T18:39:09.453Z,45.79
2019-05-13T18:41:43.142Z,46.45
2019-05-13T18:44:17.488Z,46.80
2019-05-13T18:46:52.294Z,46.80
2019-05-13T18:49:25.607Z,46.75
2019-05-13T18:51:58.115Z,47.20
2019-05-13T18:54:31.568Z,47.93
2019-05-13T18:57:04.338Z,48.83
2019-05-13T18:59:37.127Z,48.56
2019-05-13T19:02:12.043Z,48.63
2019-05-13T19:04:44.241Z,49.00
2019-05-13T19:17:02.955Z,49.83
2019-05-13T19:20:26.152Z,50.40
2019-05-13T19:23:01.113Z,51.36
2019-05-13T19:25:33.948Z,52.29
2019-05-13T19:28:06.765Z,52.54
2019-05-13T19:30:40.983Z,53.23
2019-05-13T19:33:14.470Z,53.15
2019-05-13T19:35:46.908Z,53.68
2019-05-13T19:38:21.186Z,54.53
2019-05-13T19:40:54.800Z,54.14
2019-05-13T19:43:27.864Z,54.37
2019-05-13T19:46:01.627Z,55.25
2019-05-13T19:48:35.465Z,56.19
2019-05-13T19:51:09.125Z,56.62
2019-05-13T19:53:44.540Z,56.21
2019-05-13T19:56:17.486Z,56.87
2019-05-13T19:58:50.380Z,56.61
2019-05-13T20:01:22.878Z,55.95
2019-05-13T20:03:59.264Z,56.34
2019-05-13T20:06:32.116Z,56.27
2019-05-13T20:09:06.279Z,56.79
2019-05-13T20:11:41.799Z,57.48
2019-05-13T20:14:13.708Z,57.41
2019-05-13T20:16:46.246Z,57.73
2019-05-13T20:19:18.581Z,58.34
2019-05-13T20:21:51.805Z,58.74
2019-05-13T20:24:24.332Z,58.38
2019-05-13T20:26:57.280Z,59.36
2019-05-13T20:29:30.241Z,59.34
2019-05-13T20:32:02.340Z,59.77
2019-05-13T20:34:36.000Z,60.46
2019-05-13T20:37:08.668Z,61.76
2019-05-13T20:39:42.467Z,61.98
2019-05-13T20:42:15.851Z,62.22
2019-05-13T20:44:48.232Z,62.63
2019-05-13T20:47:21.446Z,62.84
2019-05-13T20:50:01.502Z,63.43
2019-05-13T20:52:26.498Z,63.33
2019-05-13T20:55:24.823Z,64.57
2019-05-13T20:57:58.473Z,64.82
2019-05-13T21:00:31.511Z,65.68
2019-05-13T21:03:04.366Z,66.02
2019-05-13T21:05:37.213Z,66.86
2019-05-13T21:08:10.338Z,67.34
2019-05-13T21:10:42.254Z,66.84
2019-05-13T21:13:14.368Z,67.50
2019-05-13T21:15:47.409Z,68.92
2019-05-13T21:18:22.170Z,68.30
2019-05-13T21:20:54.950Z,69.46
2019-05-13T21:23:27.031Z,69.12
2019-05-13T21:26:01.641Z,69.79
2019-05-13T21:28:34.337Z,69.43
2019-05-13T21:31:06.990Z,69.90
2019-05-13T21:33:39.970Z,70.19
2019-05-13T21:36:13.197Z,71.22
2019-05-13T21:38:44.343Z,71.62
2019-05-13T21:41:16.902Z,71.70
2019-05-13T21:43:51.885Z,72.61
2019-05-13T21:46:23.839Z,71.47
2019-05-13T21:48:56.032Z,74.22
2019-05-13T21:51:28.222Z,73.87
2019-05-13T21:54:01.763Z,73.49
2019-05-13T21:56:34.832Z,73.87
2019-05-13T21:59:07.471Z,74.13
2019-05-13T22:01:42.239Z,74.62
2019-05-13T22:04:14.732Z,75.25
2019-05-13T22:06:47.659Z,76.11
2019-05-13T22:09:22.037Z,75.85
2019-05-13T22:11:54.859Z,76.10
2019-05-13T22:14:27.332Z,76.41
2019-05-13T22:17:01.500Z,76.33
2019-05-13T22:19:34.083Z,76.51
2019-05-13T22:22:06.799Z,78.36
2019-05-13T22:24:41.805Z,78.79
2019-05-13T22:27:15.781Z,78.64
2019-05-13T22:29:49.046Z,76.32
2019-05-13T22:32:21.984Z,77.36
2019-05-13T22:34:54.479Z,78.52
2019-05-13T22:37:26.596Z,78.40
2019-05-13T22:40:01.535Z,77.68
2019-05-13T22:42:33.968Z,79.06
2019-05-13T22:45:07.619Z,79.24
2019-05-13T22:47:41.759Z,79.12
2019-05-13T22:50:15.348Z,80.36
2019-05-13T22:52:46.794Z,80.96
2019-05-13T22:55:18.858Z,79.73
2019-05-13T22:57:51.323Z,80.29
2019-05-13T23:00:24.104Z,82.10
2019-05-13T23:02:56.136Z,83.30
2019-05-13T23:05:29.149Z,81.90
2019-05-13T23:08:02.222Z,81.16
2019-05-13T23:10:34.678Z,80.74
2019-05-13T23:13:07.448Z,80.35
2019-05-13T23:15:39.876Z,82.40
2019-05-13T23:18:11.999Z,82.44
2019-05-13T23:20:44.998Z,81.93
2019-05-13T23:23:17.072Z,82.03
2019-05-13T23:25:50.013Z,83.47
2019-05-13T23:28:22.611Z,82.14
2019-05-13T23:30:57.919Z,83.97
2019-05-13T23:33:31.380Z,84.28
2019-05-13T23:36:04.653Z,85.10
2019-05-13T23:38:38.317Z,84.20
2019-05-13T23:41:11.586Z,86.45
2019-05-13T23:43:44.512Z,85.04
2019-05-13T23:46:16.670Z,84.20
2019-05-13T23:48:51.844Z,84.98
2019-05-13T23:51:24.588Z,86.33
2019-05-13T23:53:57.231Z,87.42
2019-05-13T23:56:31.105Z,88.94
2019-05-13T23:59:04.528Z,87.91
